createdAt,value
2022-10-10T00:01:20.410Z,8.70
2022-10-10T00:03:48.011Z,10.95
2022-10-10T00:06:16.307Z,17.33
2022-10-10T00:08:44.027Z,14.15
2022-10-10T00:11:12.081Z,12.10
2022-10-10T00:13:39.093Z,12.18
2022-10-10T00:16:06.499Z,20.27
2022-10-10T00:18:34.385Z,9.02
2022-10-10T00:21:01.285Z,12.05
2022-10-10T00:23:28.307Z,9.05
2022-10-10T00:25:55.464Z,11.77
2022-10-10T00:28:22.706Z,6.75
2022-10-10T00:30:49.773Z,13.02
2022-10-10T00:33:16.695Z,19.80
2022-10-10T00:35:43.750Z,10.77
2022-10-10T00:38:11.448Z,8.77
2022-10-10T00:40:50.110Z,15.75
2022-10-10T00:43:17.754Z,8.80
2022-10-10T00:45:46.971Z,11.75
2022-10-10T00:48:24.389Z,12.27
2022-10-10T00:51:05.494Z,11.50
2022-10-10T00:53:41.292Z,9.57
2022-10-10T00:56:09.117Z,9.30
2022-10-10T00:58:39.638Z,8.68
2022-10-10T01:01:07.205Z,9.07
2022-10-10T01:03:34.164Z,14.32
2022-10-10T01:06:01.316Z,10.98
2022-10-10T01:08:28.726Z,10.70
2022-10-10T01:11:22.111Z,11.55
2022-10-10T01:14:13.347Z,6.68
2022-10-10T01:16:53.817Z,5.85
2022-10-10T01:19:48.665Z,10.10
2022-10-10T01:22:53.330Z,5.80
2022-10-10T01:25:31.863Z,6.68
2022-10-10T01:28:21.182Z,11.63
2022-10-10T01:30:49.614Z,9.38
2022-10-10T01:33:25.106Z,6.88
2022-10-10T01:36:04.331Z,10.43
2022-10-10T01:38:36.428Z,30.55
2022-10-10T01:41:24.125Z,6.93
2022-10-10T01:43:55.351Z,6.35
2022-10-10T01:46:22.647Z,6.30
2022-10-10T01:48:52.410Z,15.32
2022-10-10T01:51:46.961Z,8.60
2022-10-10T01:54:46.206Z,10.10
2022-10-10T01:57:35.510Z,6.28
2022-10-10T02:00:07.628Z,5.35
2022-10-10T02:02:37.263Z,11.70
2022-10-10T02:05:23.791Z,8.68
2022-10-10T02:08:21.470Z,9.48
2022-10-10T02:10:55.705Z,10.43
2022-10-10T02:13:27.560Z,7.63
2022-10-10T02:15:58.033Z,14.98
2022-10-10T02:18:29.220Z,20.77
2022-10-10T02:20:56.786Z,15.25
2022-10-10T02:23:24.592Z,7.55
2022-10-10T02:25:54.299Z,32.70
2022-10-10T02:28:25.975Z,27.95
2022-10-10T02:30:57.852Z,104.38
2022-10-10T02:33:30.293Z,63.40
2022-10-10T02:35:57.923Z,133.57
2022-10-10T02:38:26.128Z,107.97
2022-10-10T02:40:54.936Z,126.53
2022-10-10T02:43:22.619Z,107.43
2022-10-10T02:45:49.903Z,173.23
2022-10-10T02:48:16.944Z,100.13
2022-10-10T02:50:44.657Z,164.38
2022-10-10T02:53:11.842Z,147.02
2022-10-10T02:55:38.803Z,215.70
2022-10-10T02:58:05.789Z,141.88
2022-10-10T03:00:32.774Z,119.93
2022-10-10T03:02:59.706Z,145.65
2022-10-10T03:05:26.737Z,175.75
2022-10-10T03:07:53.699Z,143.18
2022-10-10T03:10:20.594Z,146.18
2022-10-10T03:12:47.757Z,221.50
2022-10-10T03:15:14.970Z,145.95
2022-10-10T03:17:42.622Z,149.07
2022-10-10T03:20:10.074Z,175.57
2022-10-10T03:22:37.072Z,125.32
2022-10-10T03:25:04.451Z,151.85
2022-10-10T03:27:31.637Z,158.73
2022-10-10T03:29:58.616Z,94.25
2022-10-10T03:32:25.939Z,55.38
2022-10-10T03:34:52.830Z,119.10
2022-10-10T03:37:19.805Z,82.03
2022-10-10T03:39:46.722Z,109.38
2022-10-10T03:42:13.684Z,95.50
2022-10-10T03:44:40.598Z,139.27
2022-10-10T03:47:07.538Z,101.75
2022-10-10T03:49:34.470Z,56.20
2022-10-10T03:52:01.611Z,64.00
2022-10-10T03:54:28.678Z,114.25
2022-10-10T03:56:55.622Z,34.20
2022-10-10T03:59:22.867Z,77.07
2022-10-10T04:01:49.797Z,36.33
2022-10-10T04:04:16.812Z,172.68
2022-10-10T04:06:43.828Z,49.33
2022-10-10T04:09:10.816Z,120.20
2022-10-10T04:11:38.748Z,57.28
2022-10-10T04:14:05.687Z,118.43
2022-10-10T04:16:32.809Z,73.90
2022-10-10T04:18:59.749Z,49.97
2022-10-10T04:21:26.718Z,96.07
2022-10-10T04:23:53.660Z,66.95
2022-10-10T04:26:20.576Z,51.97
2022-10-10T04:28:47.586Z,111.18
2022-10-10T04:31:14.569Z,141.38
2022-10-10T04:33:41.494Z,62.17
2022-10-10T04:36:08.663Z,112.07
2022-10-10T04:38:36.581Z,48.40
2022-10-10T04:41:03.666Z,71.68
2022-10-10T04:43:30.645Z,109.78
2022-10-10T04:46:00.898Z,53.08
2022-10-10T04:48:27.855Z,63.78
2022-10-10T04:50:57.124Z,65.32
2022-10-10T04:53:25.033Z,42.15
2022-10-10T04:55:52.083Z,81.78
2022-10-10T04:58:19.956Z,71.65
2022-10-10T05:00:51.503Z,40.63
2022-10-10T05:03:18.517Z,28.77
2022-10-10T05:05:45.459Z,98.45
2022-10-10T05:08:12.406Z,77.47
2022-10-10T05:10:39.971Z,104.65
2022-10-10T05:13:10.878Z,42.47
2022-10-10T05:18:05.453Z,24.20
2022-10-10T05:20:34.111Z,28.33
2022-10-10T05:23:01.112Z,45.80
2022-10-10T05:25:28.050Z,36.95
2022-10-10T05:27:55.304Z,59.67
2022-10-10T05:30:22.236Z,62.50
2022-10-10T05:32:49.515Z,15.95
2022-10-10T05:35:17.717Z,16.10
2022-10-10T05:37:44.638Z,10.82
2022-10-10T05:40:11.648Z,13.07
2022-10-10T05:42:38.691Z,7.40
2022-10-10T05:45:06.125Z,13.93
2022-10-10T05:47:33.028Z,11.35
2022-10-10T05:49:59.961Z,11.23
2022-10-10T05:52:28.794Z,17.02
2022-10-10T05:54:55.803Z,17.15
2022-10-10T05:57:22.790Z,25.10
2022-10-10T05:59:49.726Z,11.93
2022-10-10T06:02:16.726Z,20.77
2022-10-10T06:04:43.814Z,9.02
2022-10-10T06:07:10.786Z,11.35
2022-10-10T06:09:37.757Z,12.85
2022-10-10T06:12:04.758Z,17.58
2022-10-10T06:14:31.706Z,17.10
2022-10-10T06:16:58.679Z,15.80
2022-10-10T06:19:25.625Z,12.75
2022-10-10T06:21:52.576Z,19.42
2022-10-10T06:24:19.570Z,10.98
2022-10-10T06:26:46.506Z,9.20
2022-10-10T06:29:13.423Z,8.02
2022-10-10T06:31:41.368Z,13.77
2022-10-10T06:34:08.387Z,13.73
2022-10-10T06:36:35.698Z,8.02
2022-10-10T06:39:02.802Z,11.65
2022-10-10T06:41:29.752Z,12.52
2022-10-10T06:43:56.830Z,10.10
2022-10-10T06:46:23.747Z,12.65
2022-10-10T06:48:51.107Z,9.52
2022-10-10T06:51:19.044Z,12.77
2022-10-10T06:53:46.432Z,14.30
2022-10-10T06:56:18.024Z,12.38
2022-10-10T06:58:45.123Z,12.57
2022-10-10T07:01:12.658Z,13.93
2022-10-10T07:03:39.696Z,17.17
2022-10-10T07:06:10.211Z,11.65
2022-10-10T07:08:37.880Z,14.68
2022-10-10T07:11:05.703Z,10.20
2022-10-10T07:13:32.837Z,11.02
2022-10-10T07:15:59.953Z,11.65
2022-10-10T07:18:27.440Z,4.82
2022-10-10T07:20:58.932Z,5.07
2022-10-10T07:23:27.330Z,4.80
2022-10-10T07:26:04.118Z,3.63
2022-10-10T07:28:31.566Z,4.18
2022-10-10T07:31:06.173Z,4.75
2022-10-10T07:33:34.720Z,5.55
2022-10-10T07:36:01.743Z,5.88
2022-10-10T07:38:29.080Z,6.00
2022-10-10T07:40:56.046Z,5.47
2022-10-10T07:43:23.182Z,4.45
2022-10-10T07:45:50.298Z,6.15
2022-10-10T07:48:17.722Z,5.68
2022-10-10T07:50:45.226Z,5.47
2022-10-10T07:53:12.817Z,6.15
2022-10-10T07:55:44.226Z,8.68
2022-10-10T07:58:12.222Z,6.20
2022-10-10T08:00:43.023Z,8.90
2022-10-10T08:03:12.153Z,6.53
2022-10-10T08:05:42.840Z,8.35
2022-10-10T08:08:11.088Z,5.15
2022-10-10T08:10:38.280Z,3.60
2022-10-10T08:13:05.653Z,7.68
2022-10-10T08:15:34.045Z,4.40
2022-10-10T08:18:01.263Z,7.80
2022-10-10T08:20:28.174Z,5.20
2022-10-10T08:22:55.111Z,4.55
2022-10-10T08:25:22.079Z,4.38
2022-10-10T08:27:49.020Z,7.00
2022-10-10T08:30:16.035Z,11.15
2022-10-10T08:32:43.306Z,5.93
2022-10-10T08:35:10.215Z,3.78
2022-10-10T08:37:37.488Z,4.13
2022-10-10T08:40:05.072Z,6.95
2022-10-10T08:42:39.567Z,6.43
2022-10-10T08:45:26.347Z,4.68
2022-10-10T08:48:18.472Z,5.13
2022-10-10T08:50:51.422Z,3.58
2022-10-10T08:53:40.852Z,6.00
2022-10-10T08:56:13.541Z,4.50
2022-10-10T08:58:47.509Z,4.53
2022-10-10T09:01:21.048Z,2.03
2022-10-10T09:03:52.364Z,9.18
2022-10-10T09:06:24.925Z,6.47
2022-10-10T09:09:25.624Z,3.92
2022-10-10T09:12:28.063Z,7.38
2022-10-10T09:15:02.697Z,4.18
2022-10-10T09:17:39.680Z,3.22
2022-10-10T09:20:06.597Z,3.40
2022-10-10T09:23:01.533Z,4.25
2022-10-10T09:25:34.562Z,2.60
2022-10-10T09:28:27.963Z,4.03
2022-10-10T09:30:59.725Z,5.35
2022-10-10T09:33:49.811Z,4.00
2022-10-10T09:36:24.885Z,8.65
2022-10-10T09:38:56.805Z,6.18
2022-10-10T09:41:28.279Z,5.32
2022-10-10T09:44:00.419Z,4.78
2022-10-10T09:46:27.548Z,7.00
2022-10-10T09:48:55.290Z,7.78
2022-10-10T09:51:22.520Z,6.88
2022-10-10T09:53:50.273Z,4.15
2022-10-10T09:56:22.661Z,2.38
2022-10-10T09:58:51.897Z,4.07
2022-10-10T10:01:31.785Z,5.47
2022-10-10T10:04:30.166Z,7.95
2022-10-10T10:07:06.986Z,2.88
2022-10-10T10:09:34.165Z,3.80
2022-10-10T10:12:01.394Z,1.70
2022-10-10T10:14:36.738Z,3.30
2022-10-10T10:17:08.411Z,3.22
2022-10-10T10:19:41.197Z,4.43
2022-10-10T10:22:35.565Z,3.20
2022-10-10T10:25:33.427Z,8.95
2022-10-10T10:28:12.345Z,12.00
2022-10-10T10:30:40.787Z,3.58
2022-10-10T10:33:35.781Z,8.80
2022-10-10T10:36:25.759Z,4.82
2022-10-10T10:39:03.097Z,3.35
2022-10-10T10:41:42.920Z,8.88
2022-10-10T10:44:21.802Z,8.00
2022-10-10T10:47:06.544Z,16.85
2022-10-10T10:49:43.203Z,10.90
2022-10-10T10:52:41.881Z,4.07
2022-10-10T10:55:14.913Z,1.63
2022-10-10T10:58:10.450Z,5.97
2022-10-10T11:01:23.297Z,3.22
2022-10-10T11:05:18.127Z,4.68
2022-10-10T11:06:49.062Z,12.57
2022-10-10T11:10:17.449Z,3.30
2022-10-10T11:12:58.120Z,5.80
2022-10-10T11:16:05.940Z,6.43
2022-10-10T11:18:32.555Z,5.68
2022-10-10T11:21:25.744Z,10.15
2022-10-10T11:23:55.666Z,6.40
2022-10-10T11:26:30.182Z,7.03
2022-10-10T11:29:15.470Z,5.63
2022-10-10T11:31:55.103Z,5.20
2022-10-10T11:37:04.828Z,3.15
2022-10-10T11:39:50.999Z,6.07
2022-10-10T11:42:20.751Z,4.20
2022-10-10T11:45:04.510Z,9.05
2022-10-10T11:47:38.475Z,7.55
2022-10-10T11:50:28.704Z,4.13
2022-10-10T11:53:31.743Z,5.60
2022-10-10T11:56:37.442Z,5.97
2022-10-10T11:59:28.138Z,6.63
2022-10-10T12:04:36.315Z,2.60
2022-10-10T12:07:26.283Z,4.20
2022-10-10T12:10:00.086Z,4.05
2022-10-10T12:12:39.907Z,3.45
2022-10-10T12:15:11.347Z,1.73
2022-10-10T12:17:44.875Z,4.05
2022-10-10T12:20:35.897Z,5.50
2022-10-10T12:23:14.761Z,2.72
2022-10-10T12:25:45.769Z,3.08
2022-10-10T12:30:58.878Z,3.35
2022-10-10T12:33:29.047Z,3.22
2022-10-10T12:35:56.132Z,2.87
2022-10-10T12:38:28.626Z,2.10
2022-10-10T12:41:09.300Z,1.27
2022-10-10T12:43:52.714Z,6.53
2022-10-10T12:46:37.021Z,2.40
2022-10-10T12:49:16.383Z,0.98
2022-10-10T12:51:44.783Z,3.53
2022-10-10T12:54:25.716Z,2.78
2022-10-10T12:57:13.009Z,2.38
2022-10-10T12:59:40.634Z,2.90
2022-10-10T13:02:17.344Z,4.28
2022-10-10T13:04:47.947Z,0.93
2022-10-10T13:07:18.961Z,3.45
2022-10-10T13:09:49.395Z,3.35
2022-10-10T13:12:24.459Z,3.85
2022-10-10T13:14:51.659Z,2.75
2022-10-10T13:17:22.259Z,1.58
2022-10-10T13:19:49.450Z,2.42
2022-10-10T13:22:17.686Z,4.18
2022-10-10T13:24:45.825Z,3.65
2022-10-10T13:27:28.568Z,2.50
2022-10-10T13:29:56.175Z,8.88
2022-10-10T13:32:28.925Z,6.13
2022-10-10T13:34:58.901Z,2.08
2022-10-10T13:37:26.684Z,5.13
2022-10-10T13:39:54.268Z,3.92
2022-10-10T13:42:27.164Z,9.02
2022-10-10T13:44:55.908Z,3.45
2022-10-10T13:47:51.395Z,1.67
2022-10-10T13:50:20.986Z,7.40
2022-10-10T13:52:48.201Z,3.58
2022-10-10T13:55:34.416Z,1.95
2022-10-10T13:58:08.955Z,4.45
2022-10-10T14:00:37.980Z,3.35
2022-10-10T14:03:19.774Z,2.88
2022-10-10T14:05:47.514Z,5.53
2022-10-10T14:08:18.452Z,0.88
2022-10-10T14:13:23.154Z,2.17
2022-10-10T14:15:50.371Z,2.28
2022-10-10T14:18:25.807Z,2.08
2022-10-10T14:20:56.561Z,4.70
2022-10-10T14:23:23.796Z,3.13
2022-10-10T14:25:50.973Z,4.53
2022-10-10T14:28:25.293Z,1.55
2022-10-10T14:30:52.618Z,2.15
2022-10-10T14:33:20.293Z,3.45
2022-10-10T14:35:49.286Z,10.07
2022-10-10T14:38:16.627Z,9.98
2022-10-10T14:40:46.353Z,6.18
2022-10-10T14:43:13.878Z,27.08
2022-10-10T14:45:40.883Z,5.70
2022-10-10T14:48:08.351Z,16.90
2022-10-10T14:50:38.442Z,10.48
2022-10-10T14:53:05.877Z,5.63
2022-10-10T14:55:33.474Z,5.03
2022-10-10T14:58:01.568Z,11.35
2022-10-10T15:00:29.117Z,5.78
2022-10-10T15:02:56.684Z,9.93
2022-10-10T15:05:23.735Z,4.47
2022-10-10T15:07:54.044Z,7.95
2022-10-10T15:10:33.553Z,6.63
2022-10-10T15:13:01.815Z,2.83
2022-10-10T15:15:28.916Z,2.85
2022-10-10T15:17:58.151Z,4.90
2022-10-10T15:20:32.054Z,4.20
2022-10-10T15:23:00.671Z,7.65
2022-10-10T15:25:33.379Z,4.45
2022-10-10T15:28:02.493Z,5.25
2022-10-10T15:30:30.340Z,5.82
2022-10-10T15:32:57.287Z,3.63
2022-10-10T15:35:25.595Z,3.80
2022-10-10T15:37:52.715Z,3.45
2022-10-10T15:40:22.948Z,6.25
2022-10-10T15:42:50.779Z,6.93
2022-10-10T15:45:43.671Z,10.98
2022-10-10T15:48:06.108Z,9.68
2022-10-10T15:50:36.129Z,12.55
2022-10-10T15:53:03.114Z,16.30
2022-10-10T15:55:30.058Z,21.25
2022-10-10T15:57:56.965Z,35.30
2022-10-10T16:00:24.050Z,43.22
2022-10-10T16:02:51.018Z,12.02
2022-10-10T16:05:18.014Z,16.00
2022-10-10T16:07:48.372Z,17.80
2022-10-10T16:10:15.852Z,16.00
2022-10-10T16:12:42.843Z,15.85
2022-10-10T16:15:09.990Z,10.43
2022-10-10T16:17:36.963Z,6.53
2022-10-10T16:20:04.465Z,6.45
2022-10-10T16:22:35.476Z,7.78
2022-10-10T16:27:49.254Z,9.38
2022-10-10T16:30:16.677Z,7.03
2022-10-10T16:32:43.658Z,7.32
2022-10-10T16:35:11.539Z,9.35
2022-10-10T16:37:38.982Z,12.52
2022-10-10T16:40:07.357Z,10.40
2022-10-10T16:42:34.478Z,8.25
2022-10-10T16:45:01.418Z,5.97
2022-10-10T16:47:28.522Z,6.47
2022-10-10T16:49:55.523Z,16.10
2022-10-10T16:52:22.493Z,11.05
2022-10-10T16:54:52.174Z,14.05
2022-10-10T16:57:19.635Z,15.18
2022-10-10T16:59:46.776Z,15.25
2022-10-10T17:02:14.327Z,10.20
2022-10-10T17:04:41.317Z,10.38
2022-10-10T17:07:08.587Z,8.90
2022-10-10T17:09:35.601Z,6.05
2022-10-10T17:12:02.733Z,8.23
2022-10-10T17:14:29.663Z,10.00
2022-10-10T17:17:13.074Z,9.40
2022-10-10T17:19:40.761Z,7.97
2022-10-10T17:22:07.853Z,12.40
2022-10-10T17:24:35.579Z,7.80
2022-10-10T17:27:02.725Z,9.35
2022-10-10T17:29:29.724Z,8.93
2022-10-10T17:31:56.721Z,10.23
2022-10-10T17:34:23.783Z,9.32
2022-10-10T17:36:50.831Z,9.70
2022-10-10T17:39:17.859Z,25.55
2022-10-10T17:41:46.144Z,29.23
2022-10-10T17:44:13.673Z,30.15
2022-10-10T17:46:41.455Z,19.90
2022-10-10T17:49:10.703Z,9.93
2022-10-10T17:51:39.384Z,13.95
2022-10-10T17:54:07.253Z,11.10
2022-10-10T17:56:35.042Z,11.85
2022-10-10T17:59:02.604Z,6.03
2022-10-10T18:01:31.050Z,7.78
2022-10-10T18:03:58.728Z,6.25
2022-10-10T18:06:25.830Z,6.97
2022-10-10T18:08:54.137Z,3.42
2022-10-10T18:11:24.715Z,9.43
2022-10-10T18:13:52.248Z,3.28
2022-10-10T18:16:23.071Z,4.60
2022-10-10T18:18:52.207Z,5.63
2022-10-10T18:21:21.587Z,3.67
2022-10-10T18:23:49.289Z,3.05
2022-10-10T18:26:22.207Z,2.67
2022-10-10T18:28:52.468Z,3.33
2022-10-10T18:31:25.396Z,3.08
2022-10-10T18:33:52.522Z,3.55
2022-10-10T18:36:23.005Z,3.17
2022-10-10T18:38:50.383Z,3.90
2022-10-10T18:41:23.636Z,5.43
2022-10-10T18:43:52.062Z,6.68
2022-10-10T18:46:22.313Z,5.50
2022-10-10T18:48:53.868Z,3.75
2022-10-10T18:51:24.866Z,2.42
2022-10-10T18:53:56.127Z,2.88
2022-10-10T18:56:24.771Z,7.72
2022-10-10T18:58:55.109Z,2.92
2022-10-10T19:01:24.915Z,4.47
2022-10-10T19:03:53.270Z,5.33
2022-10-10T19:06:21.351Z,4.00
2022-10-10T19:08:48.448Z,4.90
2022-10-10T19:11:25.547Z,3.45
2022-10-10T19:13:52.672Z,3.70
2022-10-10T19:16:20.781Z,4.00
2022-10-10T19:18:48.029Z,4.72
2022-10-10T19:21:16.276Z,6.07
2022-10-10T19:23:43.652Z,4.82
2022-10-10T19:26:13.410Z,4.20
2022-10-10T19:28:40.911Z,2.97
2022-10-10T19:31:10.983Z,5.53
2022-10-10T19:33:38.620Z,1.77
2022-10-10T19:36:09.514Z,5.32
2022-10-10T19:38:41.082Z,5.80
2022-10-10T19:41:10.406Z,4.40
2022-10-10T19:43:37.411Z,7.22
2022-10-10T19:46:07.254Z,4.28
2022-10-10T19:48:37.095Z,3.08
2022-10-10T19:51:10.710Z,5.97
2022-10-10T19:53:39.032Z,2.85
2022-10-10T19:56:08.873Z,5.35
2022-10-10T19:58:37.222Z,10.43
2022-10-10T20:01:09.946Z,1.88
2022-10-10T20:03:37.296Z,2.38
2022-10-10T20:06:05.282Z,3.30
2022-10-10T20:08:33.329Z,3.00
2022-10-10T20:11:00.868Z,2.47
2022-10-10T20:13:27.871Z,6.35
2022-10-10T20:15:59.420Z,3.50
2022-10-10T20:18:26.588Z,5.32
2022-10-10T20:20:53.875Z,3.40
2022-10-10T20:23:24.414Z,5.13
2022-10-10T20:25:52.607Z,3.22
2022-10-10T20:28:22.141Z,5.72
2022-10-10T20:30:51.565Z,3.33
2022-10-10T20:33:21.863Z,3.83
2022-10-10T20:35:53.698Z,2.15
2022-10-10T20:38:22.931Z,2.70
2022-10-10T20:40:50.085Z,3.35
2022-10-10T20:43:17.094Z,4.85
2022-10-10T20:45:44.111Z,2.47
2022-10-10T20:48:11.162Z,2.42
2022-10-10T20:50:38.952Z,3.65
2022-10-10T20:53:06.627Z,6.60
2022-10-10T20:55:33.690Z,6.15
2022-10-10T20:58:00.762Z,5.43
2022-10-10T21:00:27.796Z,17.60
2022-10-10T21:02:56.280Z,3.92
2022-10-10T21:05:23.628Z,6.03
2022-10-10T21:07:50.805Z,5.43
2022-10-10T21:10:18.080Z,3.92
2022-10-10T21:12:45.081Z,5.22
2022-10-10T21:15:12.117Z,4.63
2022-10-10T21:17:39.329Z,4.85
2022-10-10T21:20:07.295Z,5.15
2022-10-10T21:22:41.361Z,2.55
2022-10-10T21:25:08.644Z,2.78
2022-10-10T21:27:35.655Z,4.43
2022-10-10T21:30:02.875Z,5.68
2022-10-10T21:32:29.961Z,13.93
2022-10-10T21:34:58.301Z,4.05
2022-10-10T21:37:27.361Z,11.25
2022-10-10T21:39:54.349Z,2.03
2022-10-10T21:42:21.405Z,6.70
2022-10-10T21:44:48.405Z,5.13
2022-10-10T21:47:15.462Z,2.80
2022-10-10T21:49:42.652Z,2.72
2022-10-10T21:52:09.688Z,6.20
2022-10-10T21:54:36.698Z,6.68
2022-10-10T21:57:03.855Z,6.95
2022-10-10T21:59:32.727Z,8.48
2022-10-10T22:01:59.800Z,3.22
2022-10-10T22:04:29.110Z,4.25
2022-10-10T22:06:56.372Z,5.75
2022-10-10T22:09:23.469Z,3.65
2022-10-10T22:11:50.534Z,3.40
2022-10-10T22:14:17.744Z,3.20
2022-10-10T22:16:44.863Z,2.85
2022-10-10T22:19:11.895Z,3.85
2022-10-10T22:21:39.735Z,4.15
2022-10-10T22:24:08.466Z,5.90
2022-10-10T22:26:36.217Z,5.97
2022-10-10T22:29:03.982Z,3.58
2022-10-10T22:31:31.045Z,6.72
2022-10-10T22:33:58.486Z,4.22
2022-10-10T22:36:25.618Z,7.70
2022-10-10T22:38:52.681Z,4.05
2022-10-10T22:41:19.709Z,5.03
2022-10-10T22:43:46.933Z,4.15
2022-10-10T22:46:13.955Z,2.60
2022-10-10T22:48:41.030Z,5.55
2022-10-10T22:51:12.399Z,4.82
2022-10-10T22:53:41.031Z,2.60
2022-10-10T22:56:09.653Z,5.05
2022-10-10T22:58:37.039Z,5.95
2022-10-10T23:01:14.153Z,4.63
2022-10-10T23:03:41.372Z,2.28
2022-10-10T23:06:09.547Z,3.92
2022-10-10T23:08:36.869Z,3.88
2022-10-10T23:11:04.117Z,4.57
2022-10-10T23:13:32.724Z,5.15
2022-10-10T23:15:59.723Z,3.25
2022-10-10T23:18:28.754Z,2.15
2022-10-10T23:20:56.433Z,3.85
2022-10-10T23:23:23.742Z,3.55
2022-10-10T23:25:51.191Z,1.27
2022-10-10T23:28:18.397Z,2.25
2022-10-10T23:30:47.143Z,2.75
2022-10-10T23:33:14.534Z,4.22
2022-10-10T23:35:41.501Z,3.28
2022-10-10T23:38:09.414Z,2.13
2022-10-10T23:40:36.365Z,4.60
2022-10-10T23:43:03.334Z,5.30
2022-10-10T23:45:30.357Z,1.73
2022-10-10T23:47:57.298Z,4.88
2022-10-10T23:50:24.250Z,3.88
2022-10-10T23:52:51.193Z,4.95
2022-10-10T23:55:18.240Z,1.70
2022-10-10T23:57:45.141Z,5.63
